createdAt,value
2018-05-15T00:01:55.531Z,18.97
2018-05-15T00:04:22.236Z,18.94
2018-05-15T00:06:48.977Z,18.91
2018-05-15T00:09:15.525Z,18.93
2018-05-15T00:11:42.184Z,18.94
2018-05-15T00:14:08.694Z,18.95
2018-05-15T00:16:35.346Z,18.91
2018-05-15T00:19:01.961Z,18.86
2018-05-15T00:21:28.574Z,18.87
2018-05-15T00:23:55.239Z,18.82
2018-05-15T00:26:21.846Z,18.87
2018-05-15T00:28:48.336Z,18.79
2018-05-15T00:31:15.009Z,18.77
2018-05-15T00:33:41.606Z,18.77
2018-05-15T00:36:08.205Z,18.80
2018-05-15T00:38:34.841Z,18.77
2018-05-15T00:41:01.426Z,18.77
2018-05-15T00:43:28.044Z,18.79
2018-05-15T00:45:54.637Z,18.81
2018-05-15T00:48:21.350Z,18.87
2018-05-15T00:50:48.000Z,18.89
2018-05-15T00:53:14.610Z,18.86
2018-05-15T00:55:43.906Z,18.88
2018-05-15T00:58:10.411Z,18.88
2018-05-15T01:00:36.969Z,18.81
2018-05-15T01:03:03.581Z,18.80
2018-05-15T01:05:30.308Z,18.82
2018-05-15T01:07:56.869Z,18.79
2018-05-15T01:10:23.593Z,18.80
2018-05-15T01:12:50.156Z,18.72
2018-05-15T01:15:16.872Z,18.71
2018-05-15T01:17:43.384Z,18.69
2018-05-15T01:20:10.065Z,18.65
2018-05-15T01:22:36.784Z,18.62
2018-05-15T01:25:03.485Z,18.65
2018-05-15T01:27:29.979Z,18.66
2018-05-15T01:29:56.716Z,18.62
2018-05-15T01:32:23.402Z,18.62
2018-05-15T01:34:49.892Z,18.64
2018-05-15T01:37:16.603Z,18.61
2018-05-15T01:39:43.228Z,18.60
2018-05-15T01:42:09.748Z,18.65
2018-05-15T01:44:36.340Z,18.67
2018-05-15T01:47:02.851Z,18.71
2018-05-15T01:49:29.387Z,18.72
2018-05-15T01:51:55.838Z,18.64
2018-05-15T01:54:22.317Z,18.61
2018-05-15T01:56:48.866Z,18.59
2018-05-15T01:59:15.397Z,18.56
2018-05-15T02:01:41.920Z,18.58
2018-05-15T02:04:08.369Z,18.55
2018-05-15T02:06:35.044Z,18.53
2018-05-15T02:09:01.600Z,18.49
2018-05-15T02:11:28.150Z,18.35
2018-05-15T02:13:54.672Z,18.34
2018-05-15T02:16:21.131Z,18.33
2018-05-15T02:18:47.740Z,18.36
2018-05-15T02:21:14.181Z,18.36
2018-05-15T02:23:40.718Z,18.35
2018-05-15T02:26:07.173Z,18.30
2018-05-15T02:28:33.645Z,18.25
2018-05-15T02:31:00.284Z,18.26
2018-05-15T02:33:33.827Z,18.24
2018-05-15T02:36:00.504Z,18.22
2018-05-15T02:38:27.023Z,18.14
2018-05-15T02:40:53.581Z,18.17
2018-05-15T02:43:20.059Z,18.12
2018-05-15T02:45:46.593Z,18.12
2018-05-15T02:48:13.141Z,18.07
2018-05-15T02:50:39.673Z,18.06
2018-05-15T02:53:06.311Z,18.09
2018-05-15T02:55:32.945Z,18.08
2018-05-15T02:57:59.456Z,18.09
2018-05-15T03:00:26.073Z,18.00
2018-05-15T03:02:52.737Z,17.98
2018-05-15T03:05:19.266Z,17.95
2018-05-15T03:07:45.812Z,17.93
2018-05-15T03:10:12.376Z,17.95
2018-05-15T03:12:38.901Z,17.94
2018-05-15T03:15:05.542Z,17.95
2018-05-15T03:17:32.192Z,17.96
2018-05-15T03:19:58.801Z,17.95
2018-05-15T03:22:25.301Z,17.96
2018-05-15T03:24:51.743Z,17.95
2018-05-15T03:27:18.468Z,17.96
2018-05-15T03:29:44.956Z,17.96
2018-05-15T03:32:11.588Z,17.98
2018-05-15T03:34:38.210Z,17.96
2018-05-15T03:37:04.750Z,17.89
2018-05-15T03:39:31.444Z,17.95
2018-05-15T03:41:57.939Z,17.97
2018-05-15T03:44:24.488Z,17.95
2018-05-15T03:46:51.142Z,17.97
2018-05-15T03:49:17.713Z,17.94
2018-05-15T03:51:44.353Z,17.95
2018-05-15T03:54:11.009Z,17.97
2018-05-15T03:56:37.451Z,17.92
2018-05-15T03:59:04.033Z,17.96
2018-05-15T04:06:29.830Z,17.97
2018-05-15T04:08:56.281Z,17.98
2018-05-15T04:11:22.832Z,18.03
2018-05-15T04:13:49.368Z,18.14
2018-05-15T04:16:15.884Z,18.25
2018-05-15T04:18:42.408Z,18.31
2018-05-15T04:21:08.949Z,18.40
2018-05-15T04:23:35.479Z,18.50
2018-05-15T04:26:01.980Z,18.59
2018-05-15T04:28:28.710Z,18.60
2018-05-15T04:30:55.215Z,18.68
2018-05-15T04:33:21.861Z,18.73
2018-05-15T04:35:48.532Z,18.72
2018-05-15T04:38:15.041Z,18.66
2018-05-15T04:40:41.647Z,18.64
2018-05-15T04:43:08.358Z,18.68
2018-05-15T04:45:35.098Z,18.71
2018-05-15T04:48:01.592Z,18.69
2018-05-15T04:50:28.745Z,18.70
2018-05-15T04:52:55.205Z,18.69
2018-05-15T04:55:21.769Z,18.73
2018-05-15T04:57:48.461Z,18.74
2018-05-15T05:00:15.101Z,18.77
2018-05-15T05:02:41.869Z,18.87
2018-05-15T05:05:08.439Z,18.94
2018-05-15T05:07:35.305Z,19.01
2018-05-15T05:10:02.093Z,19.12
2018-05-15T05:12:28.685Z,19.17
2018-05-15T05:14:55.232Z,19.25
2018-05-15T05:17:21.822Z,19.33
2018-05-15T05:19:48.426Z,19.41
2018-05-15T05:22:15.165Z,19.45
2018-05-15T05:24:41.941Z,19.43
2018-05-15T05:27:08.775Z,19.42
2018-05-15T05:29:35.394Z,19.36
2018-05-15T05:32:01.924Z,19.37
2018-05-15T05:34:28.424Z,19.52
2018-05-15T05:36:54.909Z,19.77
2018-05-15T05:39:21.406Z,19.98
2018-05-15T05:41:48.031Z,20.13
2018-05-15T05:44:14.527Z,20.24
2018-05-15T05:46:41.156Z,20.28
2018-05-15T05:49:07.817Z,20.40
2018-05-15T05:51:34.541Z,20.47
2018-05-15T05:54:01.207Z,20.57
2018-05-15T05:56:27.828Z,20.65
2018-05-15T05:58:54.390Z,20.75
2018-05-15T06:01:21.121Z,20.80
2018-05-15T06:03:47.646Z,20.75
2018-05-15T06:06:14.236Z,20.77
2018-05-15T06:08:40.761Z,20.73
2018-05-15T06:11:07.350Z,20.88
2018-05-15T06:13:33.820Z,20.95
2018-05-15T06:16:00.556Z,21.01
2018-05-15T06:18:27.044Z,21.01
2018-05-15T06:20:53.739Z,21.12
2018-05-15T06:23:20.298Z,21.18
2018-05-15T06:25:46.899Z,21.34
2018-05-15T06:28:13.479Z,21.37
2018-05-15T06:30:40.232Z,21.39
2018-05-15T06:33:06.903Z,21.43
2018-05-15T06:35:33.497Z,21.52
2018-05-15T06:40:52.585Z,21.59
2018-05-15T06:43:19.274Z,21.64
2018-05-15T06:45:46.021Z,21.68
2018-05-15T06:48:12.450Z,21.75
2018-05-15T06:50:39.237Z,21.77
2018-05-15T06:53:05.752Z,21.89
2018-05-15T06:55:32.318Z,21.87
2018-05-15T06:57:59.037Z,21.87
2018-05-15T07:00:25.538Z,21.90
2018-05-15T07:02:52.080Z,21.96
2018-05-15T07:05:18.661Z,21.99
2018-05-15T07:07:45.313Z,21.96
2018-05-15T07:10:11.807Z,22.00
2018-05-15T07:12:38.413Z,22.14
2018-05-15T07:15:05.004Z,22.17
2018-05-15T07:17:31.543Z,22.18
2018-05-15T07:19:58.124Z,22.23
2018-05-15T07:22:24.760Z,22.32
2018-05-15T07:24:51.346Z,22.40
2018-05-15T07:29:58.812Z,22.46
2018-05-15T07:32:25.334Z,22.50
2018-05-15T07:34:52.029Z,22.49
2018-05-15T07:37:18.660Z,22.53
2018-05-15T07:39:45.218Z,22.59
2018-05-15T07:42:11.749Z,22.57
2018-05-15T07:44:38.260Z,22.67
2018-05-15T07:47:04.937Z,22.68
2018-05-15T07:49:31.598Z,22.75
2018-05-15T07:51:58.101Z,22.74
2018-05-15T07:54:24.583Z,22.86
2018-05-15T07:56:51.216Z,22.85
2018-05-15T07:59:17.886Z,22.79
2018-05-15T08:01:44.497Z,22.84
2018-05-15T08:04:11.273Z,22.95
2018-05-15T08:06:37.854Z,22.97
2018-05-15T08:09:05.343Z,22.99
2018-05-15T08:11:31.912Z,23.00
2018-05-15T08:13:58.428Z,23.06
2018-05-15T08:16:25.028Z,23.12
2018-05-15T08:18:51.530Z,23.18
2018-05-15T08:21:18.208Z,23.18
2018-05-15T08:23:44.921Z,23.26
2018-05-15T08:26:11.377Z,23.28
2018-05-15T08:28:37.903Z,23.24
2018-05-15T08:31:04.371Z,23.12
2018-05-15T08:33:30.941Z,23.10
2018-05-15T08:35:57.486Z,23.14
2018-05-15T08:38:24.012Z,23.15
2018-05-15T08:40:50.833Z,23.22
2018-05-15T08:43:17.465Z,23.21
2018-05-15T08:45:43.960Z,23.22
2018-05-15T08:48:10.473Z,23.24
2018-05-15T08:50:37.028Z,23.28
2018-05-15T08:53:03.882Z,23.32
2018-05-15T08:55:30.507Z,23.41
2018-05-15T08:57:57.018Z,23.45
2018-05-15T09:00:23.810Z,23.53
2018-05-15T09:02:50.487Z,23.60
2018-05-15T09:05:16.897Z,23.64
2018-05-15T09:07:43.576Z,23.71
2018-05-15T09:10:10.038Z,23.71
2018-05-15T09:12:36.605Z,23.69
2018-05-15T09:15:03.258Z,23.79
2018-05-15T09:17:29.780Z,23.81
2018-05-15T09:19:56.437Z,23.86
2018-05-15T09:22:22.950Z,23.94
2018-05-15T09:27:41.739Z,23.99
2018-05-15T09:30:08.374Z,24.00
2018-05-15T09:32:34.900Z,23.94
2018-05-15T09:35:01.777Z,23.94
2018-05-15T09:37:28.275Z,24.02
2018-05-15T09:39:54.850Z,24.09
2018-05-15T09:42:21.374Z,24.02
2018-05-15T09:44:47.990Z,23.96
2018-05-15T09:47:14.796Z,24.02
2018-05-15T09:49:42.074Z,23.99
2018-05-15T09:52:09.011Z,24.03
2018-05-15T09:54:35.667Z,24.13
2018-05-15T09:57:02.126Z,24.11
2018-05-15T09:59:28.684Z,24.15
2018-05-15T10:01:55.258Z,24.19
2018-05-15T10:04:21.728Z,24.26
2018-05-15T10:06:48.197Z,24.33
2018-05-15T10:09:14.828Z,24.45
2018-05-15T10:11:41.403Z,24.47
2018-05-15T10:14:08.145Z,24.54
2018-05-15T10:16:34.877Z,24.51
2018-05-15T10:19:01.471Z,24.45
2018-05-15T10:21:28.070Z,24.37
2018-05-15T10:23:54.695Z,24.39
2018-05-15T10:26:21.369Z,24.48
2018-05-15T10:28:47.987Z,24.46
2018-05-15T10:31:14.602Z,24.47
2018-05-15T10:33:41.375Z,24.44
2018-05-15T10:36:07.933Z,24.35
2018-05-15T10:38:34.581Z,24.32
2018-05-15T10:41:01.139Z,24.43
2018-05-15T10:43:27.763Z,24.52
2018-05-15T10:45:54.538Z,24.53
2018-05-15T10:48:21.228Z,24.55
2018-05-15T10:50:47.850Z,24.59
2018-05-15T10:53:14.531Z,24.66
2018-05-15T10:55:41.089Z,24.71
2018-05-15T10:58:07.696Z,24.76
2018-05-15T11:00:34.183Z,24.76
2018-05-15T11:03:00.939Z,24.78
2018-05-15T11:05:27.567Z,24.84
2018-05-15T11:07:54.116Z,24.82
2018-05-15T11:10:20.769Z,24.81
2018-05-15T11:12:47.409Z,24.87
2018-05-15T11:15:13.861Z,24.83
2018-05-15T11:17:40.531Z,24.87
2018-05-15T11:20:19.473Z,24.89
2018-05-15T11:22:58.098Z,24.91
2018-05-15T11:25:24.579Z,24.92
2018-05-15T11:27:51.209Z,24.97
2018-05-15T11:30:17.887Z,25.03
2018-05-15T11:32:44.371Z,25.08
2018-05-15T11:35:10.976Z,25.22
2018-05-15T11:37:37.521Z,25.20
2018-05-15T11:40:04.161Z,25.19
2018-05-15T11:42:30.836Z,25.15
2018-05-15T11:44:57.274Z,25.16
2018-05-15T11:47:23.814Z,25.19
2018-05-15T11:49:50.743Z,25.19
2018-05-15T11:52:17.717Z,25.20
2018-05-15T11:54:43.502Z,25.23
2018-05-15T11:57:10.171Z,25.30
2018-05-15T11:59:36.737Z,25.37
2018-05-15T12:02:03.457Z,25.52
2018-05-15T12:04:30.041Z,25.48
2018-05-15T12:06:56.806Z,25.44
2018-05-15T12:09:23.364Z,25.51
2018-05-15T12:11:49.886Z,25.48
2018-05-15T12:14:16.474Z,25.39
2018-05-15T12:16:43.469Z,25.39
2018-05-15T12:19:10.037Z,25.49
2018-05-15T12:21:36.931Z,25.43
2018-05-15T12:24:03.433Z,25.40
2018-05-15T12:26:29.962Z,25.41
2018-05-15T12:28:56.452Z,25.43
2018-05-15T12:31:23.090Z,25.44
2018-05-15T12:33:49.613Z,25.44
2018-05-15T12:36:16.354Z,25.50
2018-05-15T12:38:42.832Z,25.53
2018-05-15T12:41:09.368Z,25.56
2018-05-15T12:43:35.772Z,25.62
2018-05-15T12:46:02.488Z,25.58
2018-05-15T12:48:29.156Z,25.65
2018-05-15T12:50:55.706Z,25.63
2018-05-15T12:53:22.236Z,25.57
2018-05-15T12:55:48.736Z,25.57
2018-05-15T12:58:15.341Z,25.62
2018-05-15T13:00:42.034Z,25.66
2018-05-15T13:03:08.788Z,25.66
2018-05-15T13:05:35.407Z,25.67
2018-05-15T13:08:02.002Z,25.69
2018-05-15T13:10:28.782Z,25.77
2018-05-15T13:13:01.161Z,25.70
2018-05-15T13:15:27.854Z,25.69
2018-05-15T13:17:54.341Z,25.73
2018-05-15T13:20:20.886Z,25.58
2018-05-15T13:22:47.480Z,25.55
2018-05-15T13:25:13.989Z,25.63
2018-05-15T13:27:40.615Z,25.64
2018-05-15T13:30:22.076Z,25.65
2018-05-15T13:32:48.617Z,25.65
2018-05-15T13:35:15.383Z,25.65
2018-05-15T13:37:41.948Z,25.65
2018-05-15T13:40:08.466Z,25.68
2018-05-15T13:42:35.133Z,25.66
2018-05-15T13:45:01.739Z,25.55
2018-05-15T13:47:28.253Z,25.63
2018-05-15T13:49:55.019Z,25.56
2018-05-15T13:52:21.599Z,25.54
2018-05-15T13:54:48.218Z,25.47
2018-05-15T13:57:15.002Z,25.43
2018-05-15T13:59:41.504Z,25.35
2018-05-15T14:02:08.192Z,25.29
2018-05-15T14:04:34.982Z,25.21
2018-05-15T14:07:01.676Z,25.17
2018-05-15T14:09:28.205Z,25.08
2018-05-15T14:11:54.846Z,24.94
2018-05-15T14:14:21.576Z,24.33
2018-05-15T14:16:48.191Z,24.03
2018-05-15T14:19:14.846Z,23.62
2018-05-15T14:21:41.389Z,23.19
2018-05-15T14:24:08.073Z,22.86
2018-05-15T14:26:34.731Z,22.44
2018-05-15T14:29:01.293Z,22.08
2018-05-15T14:31:28.020Z,22.04
2018-05-15T14:33:54.526Z,22.02
2018-05-15T14:36:21.157Z,21.95
2018-05-15T14:38:47.831Z,21.90
2018-05-15T14:41:14.451Z,21.91
2018-05-15T14:43:40.984Z,22.01
2018-05-15T14:46:07.585Z,22.04
2018-05-15T14:48:34.109Z,22.07
2018-05-15T14:54:08.043Z,22.09
2018-05-15T14:56:34.719Z,22.12
2018-05-15T14:59:01.428Z,21.84
2018-05-15T15:01:28.084Z,21.61
2018-05-15T15:03:54.697Z,21.46
2018-05-15T15:06:21.384Z,21.37
2018-05-15T15:08:47.942Z,21.31
2018-05-15T15:11:14.470Z,21.29
2018-05-15T15:13:41.025Z,21.23
2018-05-15T15:16:07.524Z,21.24
2018-05-15T15:18:34.092Z,21.15
2018-05-15T15:21:00.777Z,21.01
2018-05-15T15:23:27.485Z,21.00
2018-05-15T15:25:54.156Z,20.58
2018-05-15T15:28:20.856Z,20.37
2018-05-15T15:30:47.384Z,20.46
2018-05-15T15:33:14.073Z,20.39
2018-05-15T15:35:40.726Z,20.30
2018-05-15T15:38:07.484Z,20.23
2018-05-15T15:40:54.261Z,20.01
2018-05-15T15:43:24.888Z,19.97
2018-05-15T15:45:51.878Z,19.98
2018-05-15T15:48:18.512Z,19.99
2018-05-15T15:50:45.155Z,19.99
2018-05-15T15:53:12.421Z,20.08
2018-05-15T15:55:39.084Z,20.19
2018-05-15T15:58:05.772Z,20.27
2018-05-15T16:00:32.292Z,20.31
2018-05-15T16:02:58.981Z,20.34
2018-05-15T16:05:25.513Z,20.35
2018-05-15T16:07:53.509Z,20.36
2018-05-15T16:10:20.175Z,20.51
2018-05-15T16:12:46.736Z,20.64
2018-05-15T16:15:15.401Z,20.74
2018-05-15T16:17:41.989Z,20.85
2018-05-15T16:20:09.464Z,20.85
2018-05-15T16:22:57.288Z,20.95
2018-05-15T16:25:24.096Z,20.87
2018-05-15T16:27:50.914Z,20.99
2018-05-15T16:30:17.887Z,21.08
2018-05-15T16:32:46.340Z,21.17
2018-05-15T16:35:14.616Z,21.24
2018-05-15T16:37:43.871Z,21.32
2018-05-15T16:40:13.480Z,21.42
2018-05-15T16:42:41.119Z,21.43
2018-05-15T16:45:07.836Z,21.46
2018-05-15T16:47:34.618Z,21.43
2018-05-15T16:50:01.388Z,21.38
2018-05-15T16:52:27.985Z,21.24
2018-05-15T16:54:54.644Z,21.21
2018-05-15T16:57:21.361Z,21.22
2018-05-15T16:59:48.745Z,21.12
2018-05-15T17:02:15.387Z,21.09
2018-05-15T17:04:41.988Z,21.07
2018-05-15T17:07:08.599Z,20.97
2018-05-15T17:09:35.204Z,20.98
2018-05-15T17:12:02.013Z,20.87
2018-05-15T17:14:28.785Z,20.84
2018-05-15T17:16:55.568Z,20.77
2018-05-15T17:19:22.208Z,20.75
2018-05-15T17:21:48.924Z,20.77
2018-05-15T17:24:15.570Z,20.65
2018-05-15T17:26:42.445Z,20.70
2018-05-15T17:29:09.236Z,20.71
2018-05-15T17:34:09.128Z,20.79
2018-05-15T17:36:35.785Z,20.74
2018-05-15T17:39:02.552Z,20.76
2018-05-15T17:41:29.249Z,20.77
2018-05-15T17:43:55.905Z,20.76
2018-05-15T17:46:22.640Z,20.77
2018-05-15T17:48:49.209Z,20.74
2018-05-15T17:51:15.810Z,20.74
2018-05-15T17:53:42.612Z,20.72
2018-05-15T17:56:09.291Z,20.72
2018-05-15T17:58:36.117Z,20.53
2018-05-15T18:01:02.798Z,20.47
2018-05-15T18:03:29.697Z,20.47
2018-05-15T18:05:56.349Z,20.40
2018-05-15T18:08:23.012Z,20.43
2018-05-15T18:10:49.520Z,20.49
2018-05-15T18:13:16.329Z,20.51
2018-05-15T18:15:42.961Z,20.46
2018-05-15T18:18:09.690Z,20.44
2018-05-15T18:20:36.480Z,20.40
2018-05-15T18:23:03.166Z,20.46
2018-05-15T18:25:29.669Z,20.44
2018-05-15T18:27:56.241Z,20.45
2018-05-15T18:30:23.073Z,20.47
2018-05-15T18:32:49.897Z,20.52
2018-05-15T18:35:16.713Z,20.45
2018-05-15T18:37:43.312Z,20.45
2018-05-15T18:40:09.999Z,20.47
2018-05-15T18:42:36.597Z,20.49
2018-05-15T18:45:03.458Z,20.50
2018-05-15T18:47:30.324Z,20.52
2018-05-15T18:49:56.887Z,20.57
2018-05-15T18:52:23.364Z,20.55
2018-05-15T18:54:49.880Z,20.57
2018-05-15T18:57:16.405Z,20.57
2018-05-15T18:59:43.061Z,20.53
2018-05-15T19:02:09.601Z,20.57
2018-05-15T19:04:36.197Z,20.61
2018-05-15T19:07:02.907Z,20.52
2018-05-15T19:09:29.378Z,20.32
2018-05-15T19:11:56.029Z,20.26
2018-05-15T19:14:22.707Z,20.11
2018-05-15T19:16:49.443Z,20.06
2018-05-15T19:19:16.170Z,19.95
2018-05-15T19:21:42.910Z,19.76
2018-05-15T19:24:09.449Z,19.69
2018-05-15T19:26:36.155Z,19.65
2018-05-15T19:29:02.936Z,19.57
2018-05-15T19:31:35.577Z,19.52
2018-05-15T19:34:02.213Z,19.47
2018-05-15T19:36:30.598Z,19.43
2018-05-15T19:39:03.334Z,19.38
2018-05-15T19:41:29.916Z,19.38
2018-05-15T19:43:56.469Z,19.14
2018-05-15T19:46:23.156Z,19.14
2018-05-15T19:48:49.810Z,19.00
2018-05-15T19:51:16.474Z,18.77
2018-05-15T19:53:43.144Z,18.74
2018-05-15T19:56:09.690Z,18.50
2018-05-15T19:58:36.182Z,18.47
2018-05-15T20:01:02.840Z,18.53
2018-05-15T20:03:29.489Z,18.51
2018-05-15T20:05:56.146Z,18.55
2018-05-15T20:08:22.796Z,18.64
2018-05-15T20:10:49.494Z,18.75
2018-05-15T20:13:16.268Z,18.78
2018-05-15T20:15:42.944Z,18.78
2018-05-15T20:18:09.602Z,18.75
2018-05-15T20:20:36.297Z,18.84
2018-05-15T20:23:02.941Z,18.56
2018-05-15T20:25:29.444Z,18.40
2018-05-15T20:27:55.996Z,18.36
2018-05-15T20:30:22.569Z,18.29
2018-05-15T20:32:49.157Z,18.24
2018-05-15T20:35:15.803Z,18.26
2018-05-15T20:37:42.351Z,18.41
2018-05-15T20:40:09.070Z,18.33
2018-05-15T20:42:35.639Z,18.16
2018-05-15T20:45:02.399Z,18.19
2018-05-15T20:47:28.927Z,18.11
2018-05-15T20:49:55.569Z,18.08
2018-05-15T20:52:22.268Z,18.16
2018-05-15T20:54:48.946Z,18.21
2018-05-15T20:57:15.616Z,18.26
2018-05-15T20:59:42.225Z,18.35
2018-05-15T21:02:08.889Z,18.37
2018-05-15T21:04:35.522Z,18.43
2018-05-15T21:07:02.095Z,18.49
2018-05-15T21:09:28.812Z,18.45
2018-05-15T21:11:55.410Z,18.52
2018-05-15T21:14:21.992Z,18.32
2018-05-15T21:16:48.506Z,18.29
2018-05-15T21:19:15.066Z,18.37
2018-05-15T21:21:41.853Z,18.30
2018-05-15T21:24:08.445Z,18.27
2018-05-15T21:26:34.993Z,18.34
2018-05-15T21:29:01.678Z,18.42
2018-05-15T21:31:28.288Z,18.33
2018-05-15T21:33:54.928Z,18.23
2018-05-15T21:36:21.528Z,18.26
2018-05-15T21:38:48.143Z,18.31
2018-05-15T21:41:14.824Z,18.39
2018-05-15T21:43:41.317Z,18.10
2018-05-15T21:46:08.081Z,18.06
2018-05-15T21:48:34.627Z,18.03
2018-05-15T21:51:01.334Z,18.08
2018-05-15T21:53:27.945Z,18.12
2018-05-15T21:55:54.497Z,18.16
2018-05-15T21:58:21.210Z,18.19
2018-05-15T22:00:47.816Z,18.28
2018-05-15T22:03:14.527Z,18.23
2018-05-15T22:05:41.177Z,18.34
2018-05-15T22:08:07.830Z,18.42
2018-05-15T22:10:34.442Z,18.48
2018-05-15T22:13:13.326Z,18.59
2018-05-15T22:15:58.059Z,18.62
2018-05-15T22:18:42.923Z,18.53
2018-05-15T22:21:27.570Z,18.51
2018-05-15T22:23:59.878Z,18.44
2018-05-15T22:26:26.589Z,18.40
2018-05-15T22:28:53.267Z,18.36
2018-05-15T22:31:19.956Z,18.43
2018-05-15T22:33:46.541Z,18.46
2018-05-15T22:36:13.235Z,18.52
2018-05-15T22:38:39.842Z,18.56
2018-05-15T22:41:06.576Z,18.44
2018-05-15T22:43:33.157Z,18.48
2018-05-15T22:45:59.684Z,18.54
2018-05-15T22:48:26.221Z,18.50
2018-05-15T22:50:52.905Z,18.54
2018-05-15T22:53:19.384Z,18.55
2018-05-15T22:55:45.924Z,18.65
2018-05-15T22:58:12.459Z,18.65
2018-05-15T23:00:39.120Z,18.66
2018-05-15T23:03:05.672Z,18.65
2018-05-15T23:05:32.333Z,18.66
2018-05-15T23:07:59.055Z,18.57
2018-05-15T23:10:25.600Z,18.51
2018-05-15T23:12:52.331Z,18.53
2018-05-15T23:15:19.159Z,18.60
2018-05-15T23:17:45.739Z,18.64
2018-05-15T23:20:12.234Z,18.67
2018-05-15T23:22:41.688Z,18.63
2018-05-15T23:25:08.206Z,18.55
2018-05-15T23:27:34.967Z,18.33
2018-05-15T23:30:01.764Z,18.32
2018-05-15T23:32:28.583Z,18.31
2018-05-15T23:34:55.212Z,18.38
2018-05-15T23:37:21.880Z,18.26
2018-05-15T23:39:48.576Z,18.14
2018-05-15T23:42:15.146Z,18.08
2018-05-15T23:44:41.822Z,18.15
2018-05-15T23:47:08.600Z,18.15
2018-05-15T23:49:35.218Z,18.19
2018-05-15T23:52:01.798Z,18.26
2018-05-15T23:54:28.345Z,18.36
2018-05-15T23:56:54.926Z,18.44
2018-05-15T23:59:21.586Z,18.53
